Time;durP1;ratioP1;P1;durP2;ratioP2;P2;SDS_P1;SDS_P2;PMS_P1;PMS_P2;Temp;Humidity;BMP_temperature;BMP_pressure;BME280_temperature;BME280_humidity;BME280_pressure;Samples;Min_cycle;Max_cycle;Signal;HPM_P1;HPM_P2
2020/07/25 00:01:33;;;;;;;1.64;1.54;;;;;;;21.57;61.58;100154.17;;;;-53
2020/07/25 00:04:33;;;;;;;1.75;1.64;;;;;;;21.56;61.57;100156.14;;;;-49
2020/07/25 00:07:33;;;;;;;1.81;1.64;;;;;;;21.55;61.57;100154.66;;;;-49
2020/07/25 00:10:33;;;;;;;1.55;1.45;;;;;;;21.56;61.57;100155.95;;;;-59
2020/07/25 00:13:33;;;;;;;2.49;1.59;;;;;;;21.55;61.60;100158.91;;;;-60
2020/07/25 00:16:33;;;;;;;1.69;1.59;;;;;;;21.55;61.59;100160.95;;;;-59
2020/07/25 00:19:33;;;;;;;2.03;1.59;;;;;;;21.55;61.64;100159.98;;;;-60
2020/07/25 00:22:33;;;;;;;1.61;1.50;;;;;;;21.55;61.61;100160.80;;;;-59
2020/07/25 00:25:34;;;;;;;1.68;1.49;;;;;;;21.54;61.61;100158.02;;;;-59
2020/07/25 00:28:33;;;;;;;1.61;1.40;;;;;;;21.54;61.59;100156.08;;;;-60
2020/07/25 00:31:33;;;;;;;1.61;1.50;;;;;;;21.53;61.63;100154.84;;;;-59
2020/07/25 00:34:33;;;;;;;1.61;1.43;;;;;;;21.53;61.62;100160.47;;;;-59
2020/07/25 00:37:33;;;;;;;2.29;1.50;;;;;;;21.53;61.62;100156.97;;;;-59
2020/07/25 00:40:33;;;;;;;1.72;1.61;;;;;;;21.52;61.61;100156.33;;;;-59
2020/07/25 00:43:33;;;;;;;1.60;1.50;;;;;;;21.53;61.63;100159.02;;;;-60
2020/07/25 00:46:33;;;;;;;1.93;1.45;;;;;;;21.52;61.66;100152.18;;;;-59
2020/07/25 00:49:33;;;;;;;1.65;1.55;;;;;;;21.52;61.63;100151.91;;;;-60
2020/07/25 00:52:33;;;;;;;1.50;1.40;;;;;;;21.51;61.68;100152.58;;;;-59
2020/07/25 00:55:33;;;;;;;2.23;1.53;;;;;;;21.51;61.62;100153.72;;;;-60
2020/07/25 00:58:33;;;;;;;1.67;1.56;;;;;;;21.51;61.63;100155.61;;;;-59
2020/07/25 01:01:33;;;;;;;1.71;1.50;;;;;;;21.51;61.64;100158.05;;;;-60
2020/07/25 01:04:33;;;;;;;1.60;1.50;;;;;;;21.50;61.65;100159.20;;;;-59
2020/07/25 01:07:33;;;;;;;1.40;1.30;;;;;;;21.50;61.65;100157.41;;;;-60
2020/07/25 01:10:33;;;;;;;1.61;1.50;;;;;;;21.50;61.68;100162.47;;;;-60
2020/07/25 01:13:33;;;;;;;1.65;1.49;;;;;;;21.50;61.63;100164.09;;;;-60
2020/07/25 01:16:33;;;;;;;1.71;1.39;;;;;;;21.49;61.64;100165.55;;;;-59
2020/07/25 01:19:33;;;;;;;1.65;1.30;;;;;;;21.49;61.69;100161.63;;;;-59
2020/07/25 01:22:33;;;;;;;1.50;1.40;;;;;;;21.49;61.68;100166.61;;;;-60
2020/07/25 01:25:33;;;;;;;2.36;1.63;;;;;;;21.50;61.67;100167.41;;;;-59
2020/07/25 01:28:33;;;;;;;1.49;1.39;;;;;;;21.49;61.69;100170.85;;;;-59
2020/07/25 01:31:33;;;;;;;1.95;1.45;;;;;;;21.48;61.63;100169.48;;;;-60
2020/07/25 01:34:33;;;;;;;1.50;1.40;;;;;;;21.49;61.64;100173.22;;;;-60
2020/07/25 01:37:33;;;;;;;1.53;1.43;;;;;;;21.48;61.65;100173.23;;;;-60
2020/07/25 01:40:33;;;;;;;1.61;1.50;;;;;;;21.48;61.71;100171.11;;;;-59
2020/07/25 01:43:33;;;;;;;1.52;1.40;;;;;;;21.48;61.64;100172.92;;;;-59
2020/07/25 01:46:33;;;;;;;1.50;1.40;;;;;;;21.48;61.67;100173.89;;;;-60
2020/07/25 01:49:33;;;;;;;1.57;1.47;;;;;;;21.48;61.64;100174.28;;;;-59
2020/07/25 01:52:33;;;;;;;1.51;1.41;;;;;;;21.47;61.58;100171.59;;;;-59
2020/07/25 01:55:33;;;;;;;1.58;1.48;;;;;;;21.47;61.62;100170.29;;;;-60
2020/07/25 01:58:33;;;;;;;1.59;1.49;;;;;;;21.48;61.64;100169.39;;;;-59
2020/07/25 02:01:33;;;;;;;1.69;1.29;;;;;;;21.48;61.66;100165.47;;;;-59
2020/07/25 02:04:33;;;;;;;1.51;1.41;;;;;;;21.47;61.65;100167.86;;;;-59
2020/07/25 02:07:33;;;;;;;1.66;1.56;;;;;;;21.47;61.66;100165.89;;;;-59
2020/07/25 02:10:33;;;;;;;1.61;1.50;;;;;;;21.46;61.66;100163.55;;;;-60
2020/07/25 02:13:33;;;;;;;2.33;1.53;;;;;;;21.46;61.65;100162.57;;;;-60
2020/07/25 02:16:33;;;;;;;1.65;1.55;;;;;;;21.46;61.66;100161.02;;;;-60
2020/07/25 02:19:33;;;;;;;1.49;1.39;;;;;;;21.46;61.67;100163.06;;;;-60
2020/07/25 02:22:33;;;;;;;1.43;1.33;;;;;;;21.46;61.66;100167.30;;;;-61
2020/07/25 02:25:33;;;;;;;1.65;1.40;;;;;;;21.46;61.63;100167.79;;;;-59
2020/07/25 02:28:33;;;;;;;1.58;1.44;;;;;;;21.46;61.65;100169.51;;;;-60
2020/07/25 02:31:33;;;;;;;1.67;1.57;;;;;;;21.46;61.68;100169.73;;;;-60
2020/07/25 02:34:33;;;;;;;1.50;1.40;;;;;;;21.46;61.66;100169.58;;;;-60
2020/07/25 02:37:33;;;;;;;1.69;1.56;;;;;;;21.46;61.67;100170.48;;;;-59
2020/07/25 02:40:33;;;;;;;2.09;1.38;;;;;;;21.45;61.67;100169.41;;;;-59
2020/07/25 02:43:33;;;;;;;1.51;1.41;;;;;;;21.45;61.68;100169.98;;;;-60
2020/07/25 02:46:33;;;;;;;1.55;1.45;;;;;;;21.45;61.72;100171.62;;;;-60
2020/07/25 02:49:33;;;;;;;1.55;1.45;;;;;;;21.45;61.66;100171.78;;;;-59
2020/07/25 02:52:34;;;;;;;2.29;1.51;;;;;;;21.45;61.68;100166.98;;;;-59
2020/07/25 02:55:33;;;;;;;1.43;1.33;;;;;;;21.45;61.68;100168.12;;;;-60
2020/07/25 02:58:33;;;;;;;1.83;1.51;;;;;;;21.43;61.69;100169.19;;;;-59
2020/07/25 03:01:33;;;;;;;1.55;1.33;;;;;;;21.44;61.69;100170.17;;;;-60
2020/07/25 03:04:33;;;;;;;1.50;1.40;;;;;;;21.43;61.68;100168.84;;;;-59
2020/07/25 03:07:33;;;;;;;1.53;1.43;;;;;;;21.43;61.67;100170.80;;;;-59
2020/07/25 03:10:33;;;;;;;1.65;1.40;;;;;;;21.43;61.74;100166.81;;;;-59
2020/07/25 03:13:33;;;;;;;1.40;1.30;;;;;;;21.43;61.68;100166.41;;;;-60
2020/07/25 03:16:33;;;;;;;1.50;1.40;;;;;;;21.43;61.71;100163.63;;;;-49
2020/07/25 03:19:33;;;;;;;1.51;1.41;;;;;;;21.43;61.70;100161.76;;;;-48
2020/07/25 03:22:34;;;;;;;1.37;1.27;;;;;;;21.42;61.74;100167.81;;;;-49
2020/07/25 03:25:33;;;;;;;1.43;1.33;;;;;;;21.42;61.68;100173.74;;;;-49
2020/07/25 03:28:33;;;;;;;1.50;1.40;;;;;;;21.42;61.71;100171.78;;;;-50
2020/07/25 03:31:33;;;;;;;2.17;1.38;;;;;;;21.41;61.69;100168.42;;;;-49
2020/07/25 03:34:33;;;;;;;1.51;1.41;;;;;;;21.42;61.70;100175.70;;;;-49
2020/07/25 03:37:33;;;;;;;1.52;1.42;;;;;;;21.41;61.76;100178.94;;;;-49
2020/07/25 03:40:33;;;;;;;1.45;1.35;;;;;;;21.41;61.71;100179.67;;;;-49
2020/07/25 03:43:33;;;;;;;1.54;1.44;;;;;;;21.41;61.72;100179.03;;;;-50
2020/07/25 03:46:33;;;;;;;1.93;1.31;;;;;;;21.41;61.70;100177.48;;;;-49
2020/07/25 03:49:33;;;;;;;1.49;1.39;;;;;;;21.41;61.71;100177.56;;;;-49
2020/07/25 03:52:33;;;;;;;1.46;1.36;;;;;;;21.40;61.74;100181.73;;;;-49
2020/07/25 03:55:33;;;;;;;1.60;1.50;;;;;;;21.40;61.71;100183.44;;;;-50
2020/07/25 03:58:33;;;;;;;1.42;1.32;;;;;;;21.40;61.71;100178.70;;;;-49
2020/07/25 04:01:33;;;;;;;1.45;1.35;;;;;;;21.39;61.74;100176.61;;;;-50
2020/07/25 04:04:33;;;;;;;1.51;1.39;;;;;;;21.40;61.74;100178.16;;;;-49
2020/07/25 04:07:33;;;;;;;1.49;1.39;;;;;;;21.40;61.81;100184.83;;;;-49
2020/07/25 04:10:33;;;;;;;1.49;1.39;;;;;;;21.40;61.72;100185.00;;;;-49
2020/07/25 04:13:33;;;;;;;1.53;1.43;;;;;;;21.40;61.74;100187.20;;;;-49
2020/07/25 04:16:33;;;;;;;1.58;1.48;;;;;;;21.40;61.73;100185.98;;;;-50
2020/07/25 04:19:33;;;;;;;1.94;1.50;;;;;;;21.40;61.76;100186.55;;;;-50
2020/07/25 04:22:33;;;;;;;1.50;1.40;;;;;;;21.40;61.74;100183.53;;;;-49
2020/07/25 04:25:33;;;;;;;1.50;1.40;;;;;;;21.39;61.73;100186.72;;;;-49
2020/07/25 04:28:33;;;;;;;1.40;1.30;;;;;;;21.39;61.80;100186.07;;;;-50
2020/07/25 04:31:33;;;;;;;2.04;1.40;;;;;;;21.40;61.74;100189.97;;;;-49
2020/07/25 04:34:33;;;;;;;1.50;1.40;;;;;;;21.39;61.72;100189.87;;;;-51
2020/07/25 04:37:33;;;;;;;1.54;1.44;;;;;;;21.40;61.77;100195.44;;;;-50
2020/07/25 04:40:33;;;;;;;1.51;1.41;;;;;;;21.39;61.75;100203.08;;;;-50
2020/07/25 04:43:33;;;;;;;1.52;1.42;;;;;;;21.39;61.77;100201.12;;;;-52
2020/07/25 04:46:33;;;;;;;1.50;1.40;;;;;;;21.39;61.73;100201.38;;;;-52
2020/07/25 04:49:33;;;;;;;1.43;1.33;;;;;;;21.39;61.80;100204.88;;;;-53
2020/07/25 04:52:33;;;;;;;1.40;1.30;;;;;;;21.39;61.79;100210.99;;;;-53
2020/07/25 04:55:33;;;;;;;1.53;1.30;;;;;;;21.39;61.80;100213.36;;;;-52
2020/07/25 04:58:33;;;;;;;1.40;1.30;;;;;;;21.39;61.77;100214.41;;;;-53
2020/07/25 05:01:33;;;;;;;1.52;1.42;;;;;;;21.39;61.77;100213.77;;;;-52
2020/07/25 05:04:33;;;;;;;1.45;1.35;;;;;;;21.39;61.78;100218.91;;;;-49
2020/07/25 05:07:33;;;;;;;1.53;1.43;;;;;;;21.38;61.81;100216.87;;;;-50
2020/07/25 05:10:33;;;;;;;1.47;1.37;;;;;;;21.39;61.82;100225.09;;;;-49
2020/07/25 05:13:33;;;;;;;1.40;1.30;;;;;;;21.38;61.81;100223.06;;;;-51
2020/07/25 05:16:33;;;;;;;1.61;1.40;;;;;;;21.38;61.81;100221.84;;;;-49
2020/07/25 05:19:33;;;;;;;1.41;1.31;;;;;;;21.38;61.82;100223.39;;;;-50
2020/07/25 05:22:33;;;;;;;1.49;1.39;;;;;;;21.39;61.83;100221.19;;;;-59
2020/07/25 05:25:33;;;;;;;1.50;1.30;;;;;;;21.38;61.81;100220.72;;;;-59
2020/07/25 05:28:34;;;;;;;1.45;1.35;;;;;;;21.38;61.82;100225.92;;;;-60
2020/07/25 05:31:33;;;;;;;1.50;1.40;;;;;;;21.38;61.81;100227.96;;;;-59
2020/07/25 05:34:33;;;;;;;1.49;1.37;;;;;;;21.38;61.82;100229.36;;;;-59
2020/07/25 05:37:33;;;;;;;1.33;1.23;;;;;;;21.37;61.84;100231.95;;;;-60
2020/07/25 05:40:33;;;;;;;1.41;1.31;;;;;;;21.38;61.87;100232.63;;;;-60
2020/07/25 05:43:33;;;;;;;1.97;1.35;;;;;;;21.37;61.80;100235.38;;;;-59
2020/07/25 05:46:33;;;;;;;1.43;1.33;;;;;;;21.38;61.83;100236.53;;;;-60
2020/07/25 05:49:33;;;;;;;3.75;1.61;;;;;;;21.36;62.78;100243.14;;;;-60
2020/07/25 05:52:33;;;;;;;2.67;1.80;;;;;;;21.36;63.29;100251.30;;;;-61
2020/07/25 05:55:33;;;;;;;2.44;2.07;;;;;;;21.37;63.63;100251.84;;;;-60
2020/07/25 05:58:33;;;;;;;3.27;2.36;;;;;;;21.34;64.84;100254.00;;;;-60
2020/07/25 06:01:33;;;;;;;2.55;2.20;;;;;;;21.35;64.49;100250.63;;;;-60
2020/07/25 06:04:33;;;;;;;3.82;2.25;;;;;;;21.35;64.35;100245.11;;;;-60
2020/07/25 06:07:33;;;;;;;2.75;2.47;;;;;;;21.34;64.42;100244.86;;;;-60
2020/07/25 06:10:33;;;;;;;2.73;2.31;;;;;;;21.36;64.75;100241.19;;;;-60
2020/07/25 06:13:33;;;;;;;2.75;2.45;;;;;;;21.34;64.91;100241.76;;;;-60
2020/07/25 06:16:34;;;;;;;3.00;2.44;;;;;;;21.34;65.42;100240.55;;;;-60
2020/07/25 06:19:37;;;;;;;2.63;2.43;;;;;;;21.34;65.14;100245.27;;;;-60
2020/07/25 06:22:33;;;;;;;2.66;2.32;;;;;;;21.35;64.97;100246.58;;;;-60
2020/07/25 06:25:33;;;;;;;4.33;2.57;;;;;;;21.34;65.11;100246.23;;;;-60
2020/07/25 06:28:33;;;;;;;3.77;2.47;;;;;;;21.35;64.97;100248.86;;;;-61
2020/07/25 06:31:33;;;;;;;2.97;2.51;;;;;;;21.37;64.99;100249.16;;;;-60
2020/07/25 06:34:33;;;;;;;4.87;2.49;;;;;;;21.37;64.62;100251.27;;;;-59
2020/07/25 06:37:33;;;;;;;2.97;2.34;;;;;;;21.37;64.55;100249.08;;;;-59
2020/07/25 06:40:33;;;;;;;2.62;2.29;;;;;;;21.38;64.51;100245.83;;;;-59
2020/07/25 06:43:33;;;;;;;2.40;2.22;;;;;;;21.37;64.38;100249.17;;;;-59
2020/07/25 06:46:33;;;;;;;3.34;2.40;;;;;;;21.37;64.32;100248.84;;;;-59
2020/07/25 06:49:33;;;;;;;2.60;2.25;;;;;;;21.37;64.17;100249.17;;;;-59
2020/07/25 06:52:33;;;;;;;2.47;2.24;;;;;;;21.37;64.07;100250.21;;;;-60
2020/07/25 06:55:33;;;;;;;2.77;2.20;;;;;;;21.37;63.96;100254.94;;;;-59
2020/07/25 06:58:33;;;;;;;2.41;2.19;;;;;;;21.37;63.92;100251.60;;;;-59
2020/07/25 07:01:33;;;;;;;2.45;2.25;;;;;;;21.37;63.87;100253.39;;;;-60
2020/07/25 07:04:33;;;;;;;2.31;2.11;;;;;;;21.36;63.76;100247.20;;;;-59
2020/07/25 07:07:33;;;;;;;2.37;2.17;;;;;;;21.37;63.69;100250.55;;;;-59
2020/07/25 07:10:33;;;;;;;3.86;2.29;;;;;;;21.37;63.68;100242.88;;;;-59
2020/07/25 07:13:33;;;;;;;2.30;2.10;;;;;;;21.36;63.61;100242.64;;;;-59
2020/07/25 07:16:33;;;;;;;2.05;1.92;;;;;;;21.37;63.58;100243.13;;;;-60
2020/07/25 07:19:33;;;;;;;2.08;1.98;;;;;;;21.37;63.55;100245.48;;;;-60
2020/07/25 07:22:33;;;;;;;2.28;2.08;;;;;;;21.36;63.49;100249.66;;;;-59
2020/07/25 07:25:33;;;;;;;2.57;2.02;;;;;;;21.36;63.47;100250.47;;;;-60
2020/07/25 07:28:33;;;;;;;2.11;1.91;;;;;;;21.36;63.44;100248.77;;;;-60
2020/07/25 07:31:33;;;;;;;2.00;1.90;;;;;;;21.36;63.38;100245.83;;;;-59
2020/07/25 07:34:33;;;;;;;2.15;1.95;;;;;;;21.36;63.36;100254.14;;;;-60
2020/07/25 07:37:33;;;;;;;2.54;2.01;;;;;;;21.35;63.31;100252.77;;;;-60
2020/07/25 07:40:33;;;;;;;2.29;2.09;;;;;;;21.38;63.44;100255.61;;;;-55
2020/07/25 07:43:33;;;;;;;2.95;2.23;;;;;;;21.39;63.48;100256.97;;;;-56
2020/07/25 07:46:33;;;;;;;2.83;1.97;;;;;;;21.41;63.48;100256.06;;;;-58
2020/07/25 07:49:33;;;;;;;3.55;2.17;;;;;;;21.44;63.39;100258.78;;;;-53
2020/07/25 07:52:33;;;;;;;3.41;2.12;;;;;;;21.45;63.40;100259.25;;;;-55
2020/07/25 07:55:33;;;;;;;2.33;2.11;;;;;;;21.47;63.48;100257.78;;;;-55
2020/07/25 07:58:33;;;;;;;4.01;2.28;;;;;;;21.49;63.50;100257.44;;;;-61
2020/07/25 08:01:33;;;;;;;3.85;2.13;;;;;;;21.50;63.59;100259.17;;;;-57
2020/07/25 08:04:33;;;;;;;4.19;2.15;;;;;;;21.52;63.68;100257.58;;;;-65
2020/07/25 08:07:33;;;;;;;3.83;2.25;;;;;;;21.54;63.66;100253.81;;;;-55
2020/07/25 08:10:33;;;;;;;4.13;2.02;;;;;;;21.54;63.58;100256.45;;;;-66
2020/07/25 08:13:33;;;;;;;3.96;2.16;;;;;;;21.56;63.52;100251.94;;;;-62
2020/07/25 08:16:33;;;;;;;2.44;2.20;;;;;;;21.56;63.56;100249.59;;;;-54
2020/07/25 08:19:33;;;;;;;6.15;2.19;;;;;;;21.58;63.57;100248.84;;;;-57
2020/07/25 08:22:33;;;;;;;2.32;2.03;;;;;;;21.59;63.54;100243.30;;;;-55
2020/07/25 08:25:33;;;;;;;5.45;2.26;;;;;;;21.61;63.62;100244.83;;;;-57
2020/07/25 08:28:33;;;;;;;3.65;2.09;;;;;;;21.63;63.62;100242.05;;;;-60
2020/07/25 08:31:34;;;;;;;3.55;1.95;;;;;;;21.65;63.47;100242.20;;;;-58
2020/07/25 08:34:33;;;;;;;3.46;1.95;;;;;;;21.65;63.29;100246.19;;;;-59
2020/07/25 08:37:33;;;;;;;3.27;2.09;;;;;;;21.65;63.25;100245.70;;;;-58
2020/07/25 08:40:33;;;;;;;4.30;2.09;;;;;;;21.65;63.44;100248.97;;;;-58
2020/07/25 08:43:33;;;;;;;5.67;2.15;;;;;;;21.64;63.35;100249.69;;;;-58
2020/07/25 08:46:33;;;;;;;3.89;2.13;;;;;;;21.64;63.30;100246.51;;;;-58
2020/07/25 08:49:33;;;;;;;5.02;1.91;;;;;;;21.64;63.26;100239.73;;;;-58
2020/07/25 08:52:33;;;;;;;7.99;2.27;;;;;;;21.64;63.43;100240.31;;;;-63
2020/07/25 08:55:33;;;;;;;3.29;2.20;;;;;;;21.64;63.27;100242.19;;;;-56
2020/07/25 08:58:33;;;;;;;2.97;2.03;;;;;;;21.66;63.22;100235.89;;;;-63
2020/07/25 09:01:33;;;;;;;3.99;1.83;;;;;;;21.68;63.35;100226.26;;;;-54
2020/07/25 09:04:33;;;;;;;3.95;2.20;;;;;;;21.69;63.25;100225.20;;;;-60
2020/07/25 09:07:33;;;;;;;2.89;1.93;;;;;;;21.70;63.24;100226.32;;;;-57
2020/07/25 09:10:33;;;;;;;2.83;2.09;;;;;;;21.71;63.22;100220.13;;;;-59
2020/07/25 09:13:33;;;;;;;4.50;2.07;;;;;;;21.73;63.46;100222.63;;;;-65
2020/07/25 09:16:33;;;;;;;14.67;2.41;;;;;;;21.75;63.91;100222.97;;;;-52
2020/07/25 09:19:33;;;;;;;7.55;2.05;;;;;;;21.76;63.55;100220.73;;;;-54
2020/07/25 09:22:33;;;;;;;6.45;2.33;;;;;;;21.79;63.27;100223.89;;;;-54
2020/07/25 09:25:33;;;;;;;10.03;2.35;;;;;;;21.79;63.31;100222.36;;;;-53
2020/07/25 09:28:33;;;;;;;6.22;2.31;;;;;;;21.80;63.38;100221.05;;;;-51
2020/07/25 09:31:33;;;;;;;10.09;2.23;;;;;;;21.81;63.33;100224.06;;;;-53
2020/07/25 09:34:33;;;;;;;9.01;2.20;;;;;;;21.82;63.40;100220.95;;;;-57
2020/07/25 09:37:33;;;;;;;9.11;2.46;;;;;;;21.84;63.22;100221.74;;;;-61
2020/07/25 09:40:33;;;;;;;4.35;2.16;;;;;;;21.85;63.22;100220.09;;;;-53
2020/07/25 09:43:33;;;;;;;7.67;2.24;;;;;;;21.85;63.24;100221.19;;;;-55
2020/07/25 09:46:33;;;;;;;9.25;2.44;;;;;;;21.86;63.30;100223.37;;;;-53
2020/07/25 09:49:33;;;;;;;8.36;2.34;;;;;;;21.87;63.23;100222.86;;;;-52
2020/07/25 09:52:33;;;;;;;10.06;2.37;;;;;;;21.88;63.33;100217.39;;;;-60
2020/07/25 09:55:33;;;;;;;5.69;2.22;;;;;;;21.89;63.22;100219.34;;;;-57
2020/07/25 09:58:33;;;;;;;3.83;2.09;;;;;;;21.90;63.22;100221.80;;;;-57
2020/07/25 10:01:33;;;;;;;5.71;2.08;;;;;;;21.89;63.26;100222.05;;;;-64
2020/07/25 10:04:33;;;;;;;7.61;2.21;;;;;;;21.92;63.28;100221.70;;;;-64
2020/07/25 10:07:33;;;;;;;8.15;2.29;;;;;;;21.90;63.28;100220.64;;;;-53
2020/07/25 10:10:33;;;;;;;13.05;2.67;;;;;;;21.90;62.97;100218.03;;;;-57
2020/07/25 10:13:33;;;;;;;12.62;2.47;;;;;;;21.91;63.04;100218.27;;;;-52
2020/07/25 10:16:33;;;;;;;7.75;2.41;;;;;;;21.92;63.04;100219.00;;;;-54
2020/07/25 10:19:33;;;;;;;7.88;2.17;;;;;;;21.92;62.96;100228.62;;;;-57
2020/07/25 10:22:33;;;;;;;6.55;2.43;;;;;;;21.93;62.88;100223.72;;;;-59
2020/07/25 10:25:33;;;;;;;9.34;2.31;;;;;;;21.93;62.89;100222.89;;;;-61
2020/07/25 10:28:33;;;;;;;9.11;2.36;;;;;;;21.92;62.78;100222.67;;;;-61
2020/07/25 10:31:33;;;;;;;8.11;2.31;;;;;;;21.92;62.81;100224.38;;;;-60
2020/07/25 10:34:33;;;;;;;5.81;2.19;;;;;;;21.91;62.67;100222.41;;;;-61
2020/07/25 10:37:33;;;;;;;5.76;2.13;;;;;;;21.90;62.68;100220.55;;;;-61
2020/07/25 10:40:33;;;;;;;3.63;2.02;;;;;;;21.90;62.65;100218.52;;;;-61
2020/07/25 10:43:33;;;;;;;5.59;2.13;;;;;;;21.89;62.68;100226.34;;;;-61
2020/07/25 10:46:33;;;;;;;9.55;2.27;;;;;;;21.89;62.59;100220.07;;;;-60
2020/07/25 10:49:33;;;;;;;4.03;1.92;;;;;;;21.89;62.67;100215.75;;;;-61
2020/07/25 10:52:33;;;;;;;4.22;1.95;;;;;;;21.88;62.60;100207.77;;;;-60
2020/07/25 10:55:33;;;;;;;6.26;2.20;;;;;;;21.88;62.51;100209.40;;;;-61
2020/07/25 10:58:33;;;;;;;5.11;1.97;;;;;;;21.88;62.46;100202.72;;;;-60
2020/07/25 11:01:33;;;;;;;5.25;2.17;;;;;;;21.87;62.49;100199.53;;;;-60
2020/07/25 11:04:33;;;;;;;2.11;1.78;;;;;;;21.87;62.40;100197.41;;;;-61
2020/07/25 11:07:33;;;;;;;4.13;1.99;;;;;;;21.87;62.43;100200.10;;;;-61
2020/07/25 11:10:33;;;;;;;3.97;1.90;;;;;;;21.86;62.42;100196.86;;;;-61
2020/07/25 11:13:33;;;;;;;3.81;1.91;;;;;;;21.86;62.36;100197.25;;;;-61
2020/07/25 11:16:33;;;;;;;4.65;1.95;;;;;;;21.86;62.28;100191.80;;;;-61
2020/07/25 11:19:33;;;;;;;8.88;2.12;;;;;;;21.85;62.28;100181.61;;;;-60
2020/07/25 11:22:33;;;;;;;4.69;2.01;;;;;;;21.85;62.35;100187.98;;;;-60
2020/07/25 11:25:33;;;;;;;3.94;1.88;;;;;;;21.85;62.28;100184.05;;;;-61
2020/07/25 11:28:33;;;;;;;4.77;1.97;;;;;;;21.85;62.26;100184.62;;;;-60
2020/07/25 11:31:33;;;;;;;3.52;1.79;;;;;;;21.85;62.33;100179.89;;;;-61
2020/07/25 11:34:33;;;;;;;2.71;1.81;;;;;;;21.85;62.25;100174.50;;;;-60
2020/07/25 11:37:33;;;;;;;3.52;2.05;;;;;;;21.85;62.34;100176.86;;;;-57
2020/07/25 11:40:33;;;;;;;2.68;1.89;;;;;;;21.87;62.25;100171.71;;;;-55
2020/07/25 11:43:33;;;;;;;5.65;2.07;;;;;;;21.87;62.28;100171.97;;;;-58
2020/07/25 11:46:33;;;;;;;3.21;1.87;;;;;;;21.88;62.39;100169.83;;;;-60
2020/07/25 11:49:33;;;;;;;4.16;1.75;;;;;;;21.89;62.34;100172.50;;;;-55
2020/07/25 11:52:33;;;;;;;2.35;1.75;;;;;;;21.90;62.39;100167.85;;;;-55
2020/07/25 11:55:33;;;;;;;2.96;1.89;;;;;;;21.91;62.30;100166.61;;;;-55
2020/07/25 11:58:33;;;;;;;2.81;1.83;;;;;;;21.93;62.26;100160.08;;;;-54
2020/07/25 12:01:33;;;;;;;2.91;1.89;;;;;;;21.93;62.27;100154.44;;;;-53
2020/07/25 12:04:33;;;;;;;2.90;1.92;;;;;;;21.92;62.31;100158.62;;;;-53
2020/07/25 12:07:33;;;;;;;5.37;2.00;;;;;;;21.92;62.35;100159.20;;;;-53
2020/07/25 12:10:33;;;;;;;2.81;1.77;;;;;;;21.92;62.38;100153.81;;;;-53
2020/07/25 12:13:33;;;;;;;2.14;1.73;;;;;;;21.90;62.30;100149.25;;;;-52
2020/07/25 12:16:33;;;;;;;1.86;1.68;;;;;;;21.90;62.32;100140.53;;;;-52
2020/07/25 12:19:33;;;;;;;3.55;1.79;;;;;;;21.90;62.32;100130.25;;;;-53
2020/07/25 12:22:33;;;;;;;2.73;1.83;;;;;;;21.89;62.34;100132.85;;;;-53
2020/07/25 12:25:33;;;;;;;2.25;1.72;;;;;;;21.88;62.31;100135.00;;;;-53
2020/07/25 12:28:33;;;;;;;3.44;1.70;;;;;;;21.89;62.32;100132.37;;;;-53
2020/07/25 12:31:33;;;;;;;3.25;1.71;;;;;;;21.88;62.38;100131.81;;;;-52
2020/07/25 12:34:33;;;;;;;3.83;1.95;;;;;;;21.87;62.32;100127.59;;;;-53
2020/07/25 12:37:33;;;;;;;3.84;1.98;;;;;;;21.87;62.28;100124.00;;;;-53
2020/07/25 12:40:33;;;;;;;3.83;1.97;;;;;;;21.87;62.26;100124.16;;;;-52
2020/07/25 12:43:33;;;;;;;3.99;1.71;;;;;;;21.87;62.33;100116.64;;;;-53
2020/07/25 12:46:33;;;;;;;3.20;1.99;;;;;;;21.87;62.28;100118.62;;;;-52
2020/07/25 12:49:33;;;;;;;4.68;1.90;;;;;;;21.88;62.29;100112.16;;;;-49
2020/07/25 12:52:33;;;;;;;6.40;1.86;;;;;;;21.89;62.25;100109.93;;;;-58
2020/07/25 12:55:33;;;;;;;3.29;1.79;;;;;;;21.90;62.37;100111.73;;;;-53
2020/07/25 12:58:33;;;;;;;4.43;1.89;;;;;;;21.93;62.43;100114.87;;;;-56
2020/07/25 13:01:33;;;;;;;3.77;1.79;;;;;;;21.94;62.29;100112.59;;;;-50
2020/07/25 13:04:33;;;;;;;2.67;1.72;;;;;;;21.95;62.31;100102.12;;;;-52
2020/07/25 13:07:33;;;;;;;4.20;1.86;;;;;;;21.96;62.34;100098.37;;;;-52
2020/07/25 13:10:33;;;;;;;2.43;1.68;;;;;;;21.98;62.36;100101.39;;;;-53
2020/07/25 13:13:33;;;;;;;4.66;1.83;;;;;;;21.97;62.26;100109.37;;;;-54
2020/07/25 13:16:33;;;;;;;3.67;1.67;;;;;;;21.98;62.34;100105.05;;;;-53
2020/07/25 13:19:33;;;;;;;2.79;1.83;;;;;;;21.98;62.57;100102.69;;;;-61
2020/07/25 13:22:33;;;;;;;4.91;1.69;;;;;;;22.00;62.38;100101.05;;;;-57
2020/07/25 13:25:33;;;;;;;4.39;1.79;;;;;;;22.01;62.62;100095.14;;;;-55
2020/07/25 13:28:33;;;;;;;6.81;1.91;;;;;;;22.02;62.66;100091.88;;;;-52
2020/07/25 13:31:33;;;;;;;6.19;1.92;;;;;;;22.03;62.64;100087.86;;;;-57
2020/07/25 13:34:33;;;;;;;2.95;1.67;;;;;;;22.05;62.62;100087.68;;;;-53
2020/07/25 13:37:33;;;;;;;2.76;1.83;;;;;;;22.06;62.74;100085.55;;;;-53
2020/07/25 13:40:33;;;;;;;4.51;1.82;;;;;;;22.07;62.70;100083.42;;;;-57
2020/07/25 13:43:33;;;;;;;6.37;1.99;;;;;;;22.08;62.79;100082.91;;;;-58
2020/07/25 13:46:33;;;;;;;6.12;1.86;;;;;;;22.08;62.75;100077.05;;;;-59
2020/07/25 13:49:33;;;;;;;10.45;2.09;;;;;;;22.08;62.97;100071.16;;;;-61
2020/07/25 13:52:33;;;;;;;8.40;1.95;;;;;;;22.09;62.87;100073.44;;;;-52
2020/07/25 13:55:33;;;;;;;9.78;2.00;;;;;;;22.09;62.71;100068.71;;;;-52
2020/07/25 13:58:33;;;;;;;6.97;1.87;;;;;;;22.07;62.74;100074.50;;;;-52
2020/07/25 14:01:33;;;;;;;6.99;2.05;;;;;;;22.06;62.76;100064.66;;;;-52
2020/07/25 14:04:33;;;;;;;11.95;2.16;;;;;;;22.06;62.73;100060.00;;;;-52
2020/07/25 14:07:33;;;;;;;8.42;1.91;;;;;;;22.06;62.65;100058.94;;;;-52
2020/07/25 14:10:33;;;;;;;4.24;1.83;;;;;;;22.05;62.60;100060.98;;;;-51
2020/07/25 14:13:33;;;;;;;3.33;1.65;;;;;;;22.04;62.60;100054.97;;;;-52
2020/07/25 14:16:33;;;;;;;4.56;1.97;;;;;;;22.04;62.67;100053.08;;;;-52
2020/07/25 14:19:33;;;;;;;3.74;1.89;;;;;;;22.03;62.57;100045.51;;;;-52
2020/07/25 14:22:33;;;;;;;8.64;1.93;;;;;;;22.03;62.54;100039.80;;;;-53
2020/07/25 14:25:33;;;;;;;8.15;1.93;;;;;;;22.03;62.54;100033.77;;;;-60
2020/07/25 14:28:33;;;;;;;5.57;2.04;;;;;;;22.04;62.52;100040.52;;;;-60
2020/07/25 14:31:33;;;;;;;5.65;2.00;;;;;;;22.03;62.51;100035.64;;;;-61
2020/07/25 14:34:33;;;;;;;3.91;1.80;;;;;;;22.02;62.50;100023.33;;;;-59
2020/07/25 14:37:33;;;;;;;5.68;2.06;;;;;;;22.02;62.61;100024.56;;;;-61
2020/07/25 14:40:33;;;;;;;3.45;2.12;;;;;;;22.04;62.55;100022.72;;;;-60
2020/07/25 14:43:33;;;;;;;5.39;2.12;;;;;;;22.05;62.62;100007.88;;;;-60
2020/07/25 14:46:33;;;;;;;4.31;2.31;;;;;;;22.04;62.69;100000.45;;;;-62
2020/07/25 14:49:33;;;;;;;6.97;2.40;;;;;;;22.04;62.61;100003.72;;;;-55
2020/07/25 14:52:33;;;;;;;8.37;2.46;;;;;;;22.04;62.63;100000.20;;;;-55
2020/07/25 14:55:33;;;;;;;8.15;2.67;;;;;;;22.03;62.63;99988.87;;;;-55
2020/07/25 14:58:33;;;;;;;5.00;2.39;;;;;;;22.03;62.75;99982.99;;;;-52
2020/07/25 15:01:33;;;;;;;6.79;2.47;;;;;;;22.04;62.67;99976.64;;;;-57
2020/07/25 15:04:33;;;;;;;5.32;2.92;;;;;;;22.04;62.64;99975.25;;;;-56
2020/07/25 15:07:33;;;;;;;10.69;3.09;;;;;;;22.04;62.79;99976.48;;;;-50
2020/07/25 15:10:33;;;;;;;8.85;3.19;;;;;;;22.03;62.79;99972.06;;;;-53
2020/07/25 15:13:33;;;;;;;6.90;3.29;;;;;;;22.03;62.75;99968.48;;;;-52
2020/07/25 15:16:33;;;;;;;6.47;2.87;;;;;;;22.01;62.63;99966.62;;;;-52
2020/07/25 15:19:33;;;;;;;5.31;2.89;;;;;;;22.00;62.65;99962.89;;;;-53
2020/07/25 15:22:33;;;;;;;6.49;2.92;;;;;;;21.99;62.65;99952.87;;;;-52
2020/07/25 15:25:33;;;;;;;6.19;2.89;;;;;;;21.98;62.62;99952.41;;;;-52
2020/07/25 15:28:33;;;;;;;8.41;2.97;;;;;;;21.97;62.60;99953.45;;;;-52
2020/07/25 15:31:33;;;;;;;4.87;2.79;;;;;;;21.96;62.62;99948.98;;;;-53
2020/07/25 15:34:33;;;;;;;6.29;3.14;;;;;;;21.95;62.58;99950.69;;;;-52
2020/07/25 15:37:33;;;;;;;6.39;2.99;;;;;;;21.95;62.61;99949.31;;;;-52
2020/07/25 15:40:33;;;;;;;5.79;2.89;;;;;;;21.93;62.60;99941.25;;;;-52
2020/07/25 15:43:33;;;;;;;6.09;3.01;;;;;;;21.93;62.55;99940.27;;;;-53
2020/07/25 15:46:33;;;;;;;5.98;3.01;;;;;;;21.92;62.54;99940.80;;;;-52
2020/07/25 15:49:33;;;;;;;6.69;3.15;;;;;;;21.92;62.57;99939.17;;;;-52
2020/07/25 15:52:33;;;;;;;6.07;3.02;;;;;;;21.91;62.58;99932.16;;;;-52
2020/07/25 15:55:33;;;;;;;6.33;3.27;;;;;;;21.90;62.55;99932.00;;;;-53
2020/07/25 15:58:33;;;;;;;5.53;2.93;;;;;;;21.90;62.54;99929.16;;;;-52
2020/07/25 16:01:33;;;;;;;6.15;3.13;;;;;;;21.89;62.59;99926.14;;;;-52
2020/07/25 16:04:33;;;;;;;5.89;3.03;;;;;;;21.88;62.56;99928.53;;;;-51
2020/07/25 16:07:33;;;;;;;6.59;3.16;;;;;;;21.90;62.64;99924.17;;;;-55
2020/07/25 16:10:33;;;;;;;6.95;3.35;;;;;;;21.92;62.58;99922.61;;;;-66
2020/07/25 16:13:33;;;;;;;6.13;3.35;;;;;;;21.94;62.57;99918.35;;;;-58
2020/07/25 16:16:33;;;;;;;7.11;3.39;;;;;;;21.95;62.56;99916.42;;;;-60
2020/07/25 16:19:33;;;;;;;6.74;3.31;;;;;;;21.96;62.59;99918.15;;;;-65
2020/07/25 16:22:33;;;;;;;6.22;2.91;;;;;;;21.97;62.69;99915.59;;;;-67
2020/07/25 16:25:33;;;;;;;7.55;3.49;;;;;;;21.98;62.71;99913.06;;;;-51
2020/07/25 16:28:33;;;;;;;7.01;3.07;;;;;;;21.99;62.71;99909.94;;;;-54
2020/07/25 16:31:33;;;;;;;6.60;3.62;;;;;;;22.00;62.79;99908.72;;;;-53
2020/07/25 16:34:33;;;;;;;7.80;3.21;;;;;;;22.01;62.88;99906.97;;;;-60
2020/07/25 16:37:33;;;;;;;7.83;3.30;;;;;;;22.01;62.70;99902.33;;;;-65
2020/07/25 16:40:33;;;;;;;7.20;3.07;;;;;;;22.03;62.83;99900.52;;;;-59
2020/07/25 16:43:33;;;;;;;6.05;3.17;;;;;;;22.03;62.84;99895.63;;;;-54